Time;durP1;ratioP1;P1;durP2;ratioP2;P2;SDS_P1;SDS_P2;PMS_P1;PMS_P2;Temp;Humidity;BMP_temperature;BMP_pressure;BME280_temperature;BME280_humidity;BME280_pressure;Samples;Min_cycle;Max_cycle;Signal;HPM_P1;HPM_P2
2024/01/02 00:00:16;;;;;;;367.73;342.08;;;4.80;99.90;;;;;;5047897;28;20071;-74
2024/01/02 00:02:42;;;;;;;329.97;306.43;;;4.80;99.90;;;;;;5031582;28;20040;-73
2024/01/02 00:05:09;;;;;;;514.25;474.38;;;4.80;99.90;;;;;;5032518;28;20710;-73
2024/01/02 00:07:39;;;;;;;241.75;226.70;;;4.90;99.90;;;;;;5027560;28;20064;-73
2024/01/02 00:10:09;;;;;;;258.67;242.32;;;4.90;99.90;;;;;;5047285;28;20071;-73
2024/01/02 00:12:39;;;;;;;260.27;243.65;;;4.90;99.90;;;;;;5051946;28;20041;-74
2024/01/02 00:15:09;;;;;;;270.50;253.23;;;4.90;99.90;;;;;;5020925;28;20045;-74
2024/01/02 00:17:39;;;;;;;313.77;293.35;;;4.90;99.90;;;;;;5047350;28;20497;-74
2024/01/02 00:20:09;;;;;;;358.77;333.13;;;4.90;99.90;;;;;;5048173;28;20471;-74
2024/01/02 00:22:36;;;;;;;330.42;307.52;;;4.90;99.90;;;;;;5047911;28;20040;-74
2024/01/02 00:25:06;;;;;;;278.52;260.33;;;5.00;99.90;;;;;;5037066;28;20040;-73
2024/01/02 00:27:34;;;;;;;334.35;311.08;;;5.00;99.90;;;;;;5031705;28;20044;-74
2024/01/02 00:30:00;;;;;;;392.70;365.23;;;5.00;99.90;;;;;;5028985;28;20057;-74
2024/01/02 00:32:30;;;;;;;346.77;323.23;;;5.00;99.90;;;;;;5047010;28;20044;-74
2024/01/02 00:34:57;;;;;;;313.92;292.63;;;5.00;99.90;;;;;;5034301;28;20387;-73
2024/01/02 00:37:25;;;;;;;308.55;288.60;;;5.00;99.90;;;;;;5031771;28;20044;-74
2024/01/02 00:39:53;;;;;;;387.27;359.42;;;5.00;99.90;;;;;;5031514;28;20484;-74
2024/01/02 00:42:20;;;;;;;317.30;295.80;;;5.00;99.90;;;;;;5046838;28;20037;-73
2024/01/02 00:44:49;;;;;;;434.05;401.58;;;5.00;99.90;;;;;;5033112;28;20401;-73
2024/01/02 00:47:15;;;;;;;396.00;367.30;;;5.10;99.90;;;;;;5031097;28;20052;-73
2024/01/02 00:49:42;;;;;;;379.92;351.73;;;5.10;99.90;;;;;;5020341;28;20037;-73
2024/01/02 00:52:09;;;;;;;355.75;330.73;;;5.10;99.90;;;;;;5030730;28;20033;-73
2024/01/02 00:54:37;;;;;;;374.95;347.33;;;5.10;99.90;;;;;;5046648;28;20045;-72
2024/01/02 00:57:04;;;;;;;414.77;385.48;;;5.10;99.90;;;;;;5047981;28;20082;-73
2024/01/02 00:59:33;;;;;;;334.38;310.42;;;5.10;99.90;;;;;;5030135;28;20045;-73
2024/01/02 01:01:59;;;;;;;452.70;418.38;;;5.20;99.90;;;;;;5044272;28;20052;-73
2024/01/02 01:04:27;;;;;;;437.77;405.03;;;5.20;99.90;;;;;;5047954;28;20033;-73
2024/01/02 01:06:57;;;;;;;285.15;266.35;;;5.20;99.90;;;;;;5043808;28;20045;-72
2024/01/02 01:09:26;;;;;;;348.83;324.50;;;5.20;99.90;;;;;;5030213;28;20048;-73
2024/01/02 01:11:53;;;;;;;335.13;313.67;;;5.20;99.90;;;;;;5030574;28;20064;-73
2024/01/02 01:14:19;;;;;;;514.55;473.90;;;5.20;99.90;;;;;;5047629;28;20051;-73
2024/01/02 01:16:47;;;;;;;272.30;255.07;;;5.20;99.90;;;;;;5031238;28;20695;-73
2024/01/02 01:19:16;;;;;;;440.05;407.00;;;5.20;99.90;;;;;;5042487;28;20713;-73
2024/01/02 01:21:42;;;;;;;496.60;457.10;;;5.20;99.90;;;;;;5047149;28;20047;-73
2024/01/02 01:24:09;;;;;;;427.70;395.95;;;5.20;99.90;;;;;;5047372;28;20093;-74
2024/01/02 01:26:35;;;;;;;368.40;341.97;;;5.30;99.90;;;;;;5031145;28;20053;-73
2024/01/02 01:29:02;;;;;;;421.38;392.05;;;5.30;99.90;;;;;;5047983;28;20039;-73
2024/01/02 01:31:30;;;;;;;493.50;456.67;;;5.30;99.90;;;;;;5047673;28;20093;-73
2024/01/02 01:34:00;;;;;;;387.38;360.40;;;5.30;99.90;;;;;;5047384;28;20408;-74
2024/01/02 01:36:26;;;;;;;406.60;378.05;;;5.30;99.90;;;;;;5039600;28;20520;-74
2024/01/02 01:38:54;;;;;;;570.60;525.97;;;5.40;99.90;;;;;;5049140;28;20037;-73
2024/01/02 01:41:22;;;;;;;378.90;352.08;;;5.40;99.90;;;;;;5047807;28;20127;-73
2024/01/02 01:43:48;;;;;;;527.00;485.48;;;5.40;99.90;;;;;;5027545;28;20033;-73
2024/01/02 01:46:18;;;;;;;600.08;551.97;;;5.40;99.90;;;;;;5045534;28;20063;-74
2024/01/02 01:48:48;;;;;;;427.13;395.88;;;5.50;99.90;;;;;;5030669;28;20044;-74
2024/01/02 01:51:15;;;;;;;429.38;397.60;;;5.50;99.90;;;;;;5029561;28;20037;-74
2024/01/02 01:53:45;;;;;;;441.27;408.20;;;5.50;99.90;;;;;;5046583;28;20489;-74
2024/01/02 01:56:13;;;;;;;539.05;498.05;;;5.50;99.90;;;;;;5045500;28;20052;-74
2024/01/02 01:58:39;;;;;;;553.28;509.52;;;5.50;99.90;;;;;;5046716;28;20037;-74
2024/01/02 02:01:07;;;;;;;611.47;557.50;;;5.50;99.90;;;;;;5044152;28;20049;-75
2024/01/02 02:03:37;;;;;;;465.50;429.48;;;5.60;99.90;;;;;;5058219;28;20530;-74
2024/01/02 02:06:06;;;;;;;446.52;411.50;;;5.60;99.90;;;;;;5046486;28;20056;-74
2024/01/02 02:08:34;;;;;;;462.90;427.02;;;5.60;99.90;;;;;;5030333;28;20037;-74
2024/01/02 02:11:01;;;;;;;426.40;394.73;;;5.60;99.90;;;;;;5044052;28;20442;-74
2024/01/02 02:13:27;;;;;;;340.73;317.27;;;5.60;99.90;;;;;;5021681;28;20040;-74
2024/01/02 02:15:54;;;;;;;505.98;467.88;;;5.60;99.90;;;;;;5046020;28;20033;-75
2024/01/02 02:18:20;;;;;;;364.77;338.83;;;5.60;99.90;;;;;;5026825;28;20500;-74
2024/01/02 02:20:46;;;;;;;470.60;436.07;;;5.60;99.90;;;;;;5030119;28;20045;-74
2024/01/02 02:23:16;;;;;;;527.42;486.10;;;5.60;99.90;;;;;;5046052;28;20120;-74
2024/01/02 02:25:44;;;;;;;569.55;523.42;;;5.60;99.90;;;;;;5029900;28;20033;-74
2024/01/02 02:28:11;;;;;;;425.67;393.17;;;5.60;99.90;;;;;;5046405;28;20048;-75
2024/01/02 02:30:37;;;;;;;435.48;402.85;;;5.70;99.90;;;;;;5030023;28;20037;-74
2024/01/02 02:33:03;;;;;;;534.13;492.03;;;5.70;99.90;;;;;;5029462;28;20059;-74
2024/01/02 02:35:30;;;;;;;493.02;454.55;;;5.70;99.90;;;;;;5030007;28;20084;-75
2024/01/02 02:38:00;;;;;;;586.80;538.47;;;5.70;99.90;;;;;;5029707;28;20586;-75
2024/01/02 02:40:28;;;;;;;550.45;506.73;;;5.70;99.90;;;;;;5044582;28;20535;-75
2024/01/02 02:42:54;;;;;;;446.10;414.40;;;5.70;99.90;;;;;;5029917;28;20273;-74
2024/01/02 02:45:22;;;;;;;478.23;442.50;;;5.70;99.90;;;;;;5044442;28;20029;-74
2024/01/02 02:47:50;;;;;;;384.10;356.73;;;5.70;99.90;;;;;;5044313;28;20076;-74
2024/01/02 02:50:17;;;;;;;536.30;492.53;;;5.70;99.90;;;;;;5029886;28;20126;-74
2024/01/02 02:52:43;;;;;;;630.30;574.75;;;5.70;99.90;;;;;;5029007;28;20084;-74
2024/01/02 02:55:11;;;;;;;430.75;399.83;;;5.70;99.90;;;;;;5029620;28;20156;-74
2024/01/02 02:57:39;;;;;;;421.70;391.27;;;5.80;99.90;;;;;;5029693;28;20053;-74
2024/01/02 03:00:09;;;;;;;452.63;418.70;;;5.70;99.90;;;;;;5044901;28;20481;-73
2024/01/02 03:02:36;;;;;;;540.95;498.85;;;5.70;99.90;;;;;;5045182;28;20044;-74
2024/01/02 03:05:06;;;;;;;588.57;538.43;;;5.80;99.90;;;;;;5029436;28;20032;-74
2024/01/02 03:07:33;;;;;;;427.13;396.42;;;5.70;99.90;;;;;;5045076;28;20287;-74
2024/01/02 03:10:03;;;;;;;444.42;411.77;;;5.70;99.90;;;;;;5029299;28;20044;-75
2024/01/02 03:12:31;;;;;;;517.22;477.48;;;5.80;99.90;;;;;;5045473;28;20037;-75
2024/01/02 03:14:57;;;;;;;439.77;406.88;;;5.80;99.90;;;;;;5044628;28;20045;-75
2024/01/02 03:17:24;;;;;;;425.87;395.57;;;5.70;99.90;;;;;;5031810;28;20045;-75
2024/01/02 03:19:52;;;;;;;522.45;480.27;;;5.70;99.90;;;;;;5045950;28;20048;-75
2024/01/02 03:22:22;;;;;;;413.80;384.40;;;5.70;99.90;;;;;;5031446;28;20045;-75
2024/01/02 03:24:51;;;;;;;414.42;386.35;;;5.70;99.90;;;;;;5035416;28;20037;-75
2024/01/02 03:27:19;;;;;;;558.88;514.88;;;5.80;99.90;;;;;;5050228;28;20040;-75
2024/01/02 03:29:47;;;;;;;447.40;413.67;;;5.70;99.90;;;;;;5028938;28;20135;-74
2024/01/02 03:32:14;;;;;;;417.20;387.27;;;5.70;99.90;;;;;;5023241;28;20041;-74
2024/01/02 03:34:42;;;;;;;583.45;537.67;;;5.70;99.90;;;;;;5049668;28;20053;-75
2024/01/02 03:37:09;;;;;;;628.97;571.80;;;5.70;99.90;;;;;;5049379;28;20432;-74
2024/01/02 03:39:36;;;;;;;527.22;485.10;;;5.70;99.90;;;;;;5048636;28;20137;-75
2024/01/02 03:42:02;;;;;;;545.03;502.00;;;5.70;99.90;;;;;;5044606;28;20127;-75
2024/01/02 03:44:33;;;;;;;405.98;377.77;;;5.70;99.90;;;;;;5032564;28;20041;-75
2024/01/02 03:47:00;;;;;;;434.58;402.52;;;5.70;99.90;;;;;;5029864;28;20053;-75
2024/01/02 03:49:27;;;;;;;464.80;428.48;;;5.70;99.90;;;;;;5045189;28;20067;-75
2024/01/02 03:51:54;;;;;;;457.17;422.95;;;5.70;99.90;;;;;;5030731;28;20068;-76
2024/01/02 03:54:25;;;;;;;429.38;398.42;;;5.70;99.90;;;;;;5048993;28;20064;-75
2024/01/02 03:56:52;;;;;;;383.80;356.23;;;5.70;99.90;;;;;;5030196;28;20037;-76
2024/01/02 03:59:19;;;;;;;376.30;350.20;;;5.70;99.90;;;;;;5048525;28;20410;-75
2024/01/02 04:01:45;;;;;;;435.80;404.25;;;5.70;99.90;;;;;;5048410;28;20055;-76
2024/01/02 04:04:13;;;;;;;589.92;541.60;;;5.70;99.90;;;;;;5046851;28;20065;-76
2024/01/02 04:06:39;;;;;;;584.33;538.08;;;5.70;99.90;;;;;;5048826;28;20045;-75
2024/01/02 04:09:06;;;;;;;332.63;310.20;;;5.70;99.90;;;;;;5044748;28;20060;-76
2024/01/02 04:11:34;;;;;;;557.07;514.63;;;5.70;99.90;;;;;;5030979;28;20037;-76
2024/01/02 04:14:00;;;;;;;359.20;335.15;;;5.80;99.90;;;;;;5045010;28;20128;-75
2024/01/02 04:16:27;;;;;;;390.05;363.52;;;5.80;99.90;;;;;;5047055;28;20053;-74
2024/01/02 04:18:54;;;;;;;454.88;422.50;;;5.80;99.90;;;;;;5048936;28;20037;-74
2024/01/02 04:21:20;;;;;;;498.52;460.73;;;5.80;99.90;;;;;;5031055;28;20048;-74
2024/01/02 04:23:47;;;;;;;540.55;495.67;;;5.80;99.90;;;;;;5047179;28;20047;-74
2024/01/02 04:26:15;;;;;;;422.02;392.70;;;5.80;99.90;;;;;;5031712;28;20404;-74
2024/01/02 04:28:43;;;;;;;363.88;339.85;;;5.80;99.90;;;;;;5045740;28;20515;-74
2024/01/02 04:31:10;;;;;;;423.85;394.63;;;5.80;99.90;;;;;;5048232;28;20040;-74
2024/01/02 04:33:39;;;;;;;479.48;443.98;;;5.80;99.90;;;;;;5047424;28;20127;-75
2024/01/02 04:36:07;;;;;;;416.92;387.75;;;5.80;99.90;;;;;;5031559;28;20099;-75
2024/01/02 04:38:38;;;;;;;515.25;476.80;;;5.80;99.90;;;;;;5045295;28;20056;-75
2024/01/02 04:41:06;;;;;;;606.47;556.75;;;5.80;99.90;;;;;;5046090;28;20037;-75
2024/01/02 04:43:37;;;;;;;538.92;489.05;;;5.80;99.90;;;;;;5041752;28;20041;-74
2024/01/02 04:46:05;;;;;;;350.30;327.73;;;5.80;99.90;;;;;;5024632;28;20034;-74
2024/01/02 04:48:33;;;;;;;397.08;368.42;;;5.80;99.90;;;;;;5047622;28;20030;-74
2024/01/02 04:51:00;;;;;;;440.58;408.15;;;5.80;99.90;;;;;;5046033;28;20133;-75
2024/01/02 04:53:26;;;;;;;390.30;361.90;;;5.80;99.90;;;;;;5029058;28;20249;-75
2024/01/02 04:55:52;;;;;;;494.03;456.00;;;5.80;99.90;;;;;;5044743;28;20041;-75
2024/01/02 04:58:18;;;;;;;432.85;401.15;;;5.80;99.90;;;;;;5041119;28;20037;-75
2024/01/02 05:00:47;;;;;;;559.17;513.20;;;5.80;99.90;;;;;;5031009;28;20040;-74
2024/01/02 05:03:13;;;;;;;377.80;351.50;;;5.80;99.90;;;;;;5030843;28;20490;-74
2024/01/02 05:05:41;;;;;;;451.55;417.75;;;5.80;99.90;;;;;;5047198;28;20378;-74
2024/01/02 05:08:08;;;;;;;409.95;380.65;;;5.80;99.90;;;;;;5044375;28;20041;-74
2024/01/02 05:10:36;;;;;;;365.00;339.60;;;5.80;99.90;;;;;;5047344;28;20052;-74
2024/01/02 05:13:04;;;;;;;429.52;398.60;;;5.80;99.90;;;;;;5047617;28;20085;-74
2024/01/02 05:15:33;;;;;;;496.60;457.20;;;5.80;99.90;;;;;;5047050;28;20493;-75
2024/01/02 05:17:59;;;;;;;416.67;387.02;;;5.80;99.90;;;;;;5048230;28;20120;-74
2024/01/02 05:20:27;;;;;;;539.45;495.58;;;5.80;99.90;;;;;;5046968;28;20052;-75
2024/01/02 05:22:55;;;;;;;473.25;438.52;;;5.80;99.90;;;;;;5047248;28;20037;-75
2024/01/02 05:25:21;;;;;;;420.73;390.23;;;5.80;99.90;;;;;;5045503;28;20557;-75
2024/01/02 05:27:50;;;;;;;539.85;496.88;;;5.80;99.90;;;;;;5038506;28;20084;-75
2024/01/02 05:30:19;;;;;;;321.40;299.67;;;5.80;99.90;;;;;;5046981;28;20151;-75
2024/01/02 05:32:46;;;;;;;370.58;343.98;;;5.80;99.90;;;;;;5027293;28;20056;-75
2024/01/02 05:35:13;;;;;;;453.60;420.33;;;5.80;99.90;;;;;;5046380;28;20478;-75
2024/01/02 05:37:39;;;;;;;418.23;389.13;;;5.80;99.90;;;;;;5040100;28;20036;-74
2024/01/02 05:40:09;;;;;;;383.55;357.75;;;5.90;99.90;;;;;;5046855;28;20116;-74
2024/01/02 05:42:36;;;;;;;318.15;297.17;;;5.80;99.90;;;;;;5046119;28;20049;-74
2024/01/02 05:45:02;;;;;;;438.13;406.63;;;5.90;99.90;;;;;;5046916;28;20045;-74
2024/01/02 05:47:31;;;;;;;393.70;365.42;;;5.90;99.90;;;;;;5045551;28;20106;-74
2024/01/02 05:50:04;;;;;;;344.55;320.85;;;5.90;99.90;;;;;;5047031;28;20037;-73
2024/01/02 05:52:32;;;;;;;582.58;525.50;;;5.90;99.90;;;;;;5018443;28;20046;-73
2024/01/02 05:55:04;;;;;;;378.25;351.52;;;5.90;99.90;;;;;;5046863;28;20341;-73
2024/01/02 05:57:31;;;;;;;525.10;483.95;;;5.90;99.90;;;;;;5030097;28;20261;-73
2024/01/02 05:59:58;;;;;;;393.23;365.42;;;5.90;99.90;;;;;;5029891;28;20039;-74
2024/01/02 06:02:25;;;;;;;396.60;367.63;;;6.00;99.90;;;;;;5046792;28;20392;-73
2024/01/02 06:04:50;;;;;;;304.58;284.45;;;6.00;99.90;;;;;;5023377;28;20047;-74
2024/01/02 06:07:18;;;;;;;351.15;327.25;;;6.00;99.90;;;;;;5046085;28;20052;-75
2024/01/02 06:09:45;;;;;;;371.98;346.90;;;6.00;99.90;;;;;;5046389;28;20452;-74
2024/01/02 06:12:12;;;;;;;389.50;363.23;;;6.00;99.90;;;;;;5047273;28;20098;-74
2024/01/02 06:14:39;;;;;;;427.92;397.35;;;6.10;99.90;;;;;;5045871;28;20249;-74
2024/01/02 06:17:09;;;;;;;454.10;420.52;;;6.10;99.90;;;;;;5042367;28;20540;-74
2024/01/02 06:19:39;;;;;;;477.58;442.58;;;6.10;99.90;;;;;;5046553;28;20049;-75
2024/01/02 06:22:06;;;;;;;424.48;394.63;;;6.20;99.90;;;;;;5046147;28;20337;-74
2024/01/02 06:24:34;;;;;;;378.73;353.27;;;6.20;99.90;;;;;;5046225;28;20047;-74
2024/01/02 06:26:59;;;;;;;400.63;373.03;;;6.20;99.90;;;;;;5026462;28;20036;-74
2024/01/02 06:29:26;;;;;;;267.48;251.30;;;6.20;99.90;;;;;;5044708;28;20327;-74
2024/01/02 06:31:53;;;;;;;316.67;295.60;;;6.20;99.90;;;;;;5042893;28;20485;-74
2024/01/02 06:34:21;;;;;;;431.85;400.15;;;6.20;99.90;;;;;;5047491;28;20459;-75
2024/01/02 06:36:49;;;;;;;212.00;200.25;;;6.20;99.90;;;;;;5030777;28;20044;-75
2024/01/02 06:39:17;;;;;;;315.77;295.17;;;6.30;99.90;;;;;;5047034;28;20131;-75
2024/01/02 06:41:44;;;;;;;277.13;259.13;;;6.30;99.90;;;;;;5028271;28;20126;-75
2024/01/02 06:44:12;;;;;;;283.13;264.77;;;6.30;99.90;;;;;;5046621;28;20063;-75
2024/01/02 06:46:39;;;;;;;287.70;269.95;;;6.30;99.90;;;;;;5044872;28;20087;-75
2024/01/02 06:49:11;;;;;;;299.20;280.08;;;6.40;99.90;;;;;;5033275;28;20037;-75
2024/01/02 06:51:38;;;;;;;243.02;227.40;;;6.40;99.90;;;;;;5046177;28;20037;-75
2024/01/02 06:54:05;;;;;;;309.75;290.15;;;6.40;99.90;;;;;;5049890;28;20120;-75
2024/01/02 06:56:34;;;;;;;274.65;257.30;;;6.40;99.90;;;;;;5049990;28;20131;-75
2024/01/02 06:59:02;;;;;;;342.95;321.55;;;6.50;99.90;;;;;;5050672;28;20048;-74
2024/01/02 07:01:31;;;;;;;351.37;327.50;;;6.50;99.90;;;;;;5022338;28;20045;-75
2024/01/02 07:03:57;;;;;;;244.88;230.80;;;6.60;99.90;;;;;;5030684;28;20382;-75
2024/01/02 07:06:23;;;;;;;364.35;339.42;;;6.70;99.90;;;;;;5050033;28;20037;-75
2024/01/02 07:08:51;;;;;;;480.02;444.33;;;6.80;99.90;;;;;;5049680;28;20099;-76
2024/01/02 07:11:17;;;;;;;390.87;364.20;;;7.00;99.90;;;;;;5050281;28;20052;-76
2024/01/02 07:13:44;;;;;;;400.67;372.20;;;7.20;99.90;;;;;;5049194;28;20712;-76
2024/01/02 07:16:12;;;;;;;404.05;375.08;;;7.40;99.90;;;;;;5050159;28;20037;-77
2024/01/02 07:18:38;;;;;;;422.98;392.75;;;7.50;99.90;;;;;;5033595;28;20128;-76
2024/01/02 07:21:04;;;;;;;380.88;355.92;;;7.60;99.90;;;;;;5032055;28;20040;-77
2024/01/02 07:23:30;;;;;;;451.13;419.77;;;7.70;99.90;;;;;;5026821;28;20144;-76
2024/01/02 07:25:56;;;;;;;482.23;445.57;;;7.80;99.90;;;;;;5030818;28;20309;-76
2024/01/02 07:28:21;;;;;;;418.13;389.20;;;7.90;99.90;;;;;;5030687;28;20053;-76
2024/01/02 07:30:48;;;;;;;513.53;474.10;;;8.00;99.90;;;;;;5033081;28;20237;-76
2024/01/02 07:33:15;;;;;;;372.60;347.23;;;8.00;99.90;;;;;;5031759;28;20070;-76
2024/01/02 07:35:41;;;;;;;502.23;464.03;;;8.10;99.90;;;;;;5032146;28;20362;-77
2024/01/02 07:38:07;;;;;;;540.73;499.77;;;8.10;99.90;;;;;;5032645;28;20736;-77
2024/01/02 07:40:33;;;;;;;596.97;547.60;;;8.10;99.90;;;;;;5047817;28;20037;-76
2024/01/02 07:43:00;;;;;;;448.23;414.70;;;8.20;99.90;;;;;;5045345;28;20292;-76
2024/01/02 07:45:27;;;;;;;515.43;476.20;;;8.30;99.90;;;;;;5032891;28;20305;-76
2024/01/02 07:47:52;;;;;;;556.50;512.90;;;8.30;99.90;;;;;;5033279;28;20283;-76
2024/01/02 07:50:19;;;;;;;579.93;531.40;;;8.20;99.90;;;;;;5046115;28;20272;-77
2024/01/02 07:52:47;;;;;;;633.80;582.67;;;8.30;99.90;;;;;;5044261;28;20312;-76
2024/01/02 07:55:13;;;;;;;524.10;483.93;;;8.30;99.90;;;;;;5049198;28;20298;-76
2024/01/02 07:57:39;;;;;;;574.10;526.80;;;8.40;99.90;;;;;;5048918;28;20287;-76
2024/01/02 08:00:06;;;;;;;478.60;441.30;;;8.40;99.90;;;;;;5048689;28;20275;-76
2024/01/02 08:02:31;;;;;;;719.20;652.07;;;8.50;99.90;;;;;;5027846;28;20784;-77
2024/01/02 08:04:57;;;;;;;546.23;504.20;;;8.60;99.90;;;;;;5040199;28;20302;-78
2024/01/02 08:07:23;;;;;;;588.03;541.73;;;8.60;99.90;;;;;;5039267;28;20045;-78
2024/01/02 08:09:49;;;;;;;734.00;666.37;;;8.70;99.90;;;;;;5044476;28;20036;-77
2024/01/02 08:12:15;;;;;;;749.30;672.60;;;8.70;99.90;;;;;;5043856;28;20928;-76
2024/01/02 08:14:40;;;;;;;680.43;623.73;;;8.80;99.90;;;;;;5044516;28;20508;-76
2024/01/02 08:17:06;;;;;;;607.77;558.97;;;8.80;99.90;;;;;;5045598;28;20048;-76
2024/01/02 08:19:32;;;;;;;615.70;565.60;;;8.80;99.90;;;;;;5018699;28;20037;-76
2024/01/02 08:21:58;;;;;;;460.70;427.60;;;8.90;99.90;;;;;;5037039;28;20045;-75
2024/01/02 08:24:24;;;;;;;682.10;625.97;;;8.90;99.90;;;;;;5047543;28;20040;-76
2024/01/02 08:26:50;;;;;;;627.67;575.77;;;8.90;99.90;;;;;;5027478;28;20292;-75
2024/01/02 08:29:16;;;;;;;628.83;577.60;;;8.90;99.90;;;;;;5026361;28;20433;-76
2024/01/02 08:31:42;;;;;;;677.03;616.70;;;8.90;99.90;;;;;;5026739;28;20387;-75
2024/01/02 08:34:08;;;;;;;653.60;596.87;;;8.90;99.90;;;;;;5041685;28;20540;-76
2024/01/02 08:36:33;;;;;;;587.37;538.70;;;8.90;99.90;;;;;;5026068;28;20092;-76
2024/01/02 08:38:59;;;;;;;600.47;550.00;;;8.90;99.90;;;;;;5045717;28;20725;-76
2024/01/02 08:41:25;;;;;;;697.30;621.00;;;8.90;99.90;;;;;;5042591;28;20052;-76
2024/01/02 08:43:51;;;;;;;751.63;676.43;;;8.90;99.90;;;;;;5045874;28;20048;-77
2024/01/02 08:46:17;;;;;;;719.13;656.70;;;9.00;99.90;;;;;;5027544;28;20037;-76
2024/01/02 08:48:43;;;;;;;645.30;581.23;;;9.00;99.90;;;;;;5030637;28;20660;-76
2024/01/02 08:51:08;;;;;;;867.57;775.40;;;9.10;99.90;;;;;;5045725;28;20048;-77
2024/01/02 08:53:34;;;;;;;758.30;688.73;;;9.10;99.90;;;;;;5044612;28;20044;-77
2024/01/02 08:56:00;;;;;;;640.03;585.67;;;9.10;99.90;;;;;;5043643;28;20452;-77
2024/01/02 08:58:26;;;;;;;651.40;597.47;;;9.10;99.90;;;;;;5046952;28;20103;-76
2024/01/02 09:00:51;;;;;;;716.33;646.30;;;9.20;99.90;;;;;;5023745;28;20044;-77
2024/01/02 09:03:17;;;;;;;841.30;759.00;;;9.20;99.90;;;;;;5038580;28;20045;-76
2024/01/02 09:05:43;;;;;;;702.23;639.77;;;9.20;99.90;;;;;;5040764;28;20133;-76
2024/01/02 09:08:09;;;;;;;658.77;601.87;;;9.20;99.90;;;;;;5042984;28;20037;-76
2024/01/02 09:10:35;;;;;;;785.60;712.60;;;9.20;99.90;;;;;;5018415;28;20110;-76
2024/01/02 09:13:02;;;;;;;629.60;572.07;;;9.20;99.90;;;;;;5027766;28;20107;-77
2024/01/02 09:15:28;;;;;;;610.40;559.03;;;9.30;99.90;;;;;;5040311;28;20860;-76
2024/01/02 09:17:53;;;;;;;632.77;579.60;;;9.20;99.90;;;;;;5023566;28;20292;-76
2024/01/02 09:20:19;;;;;;;594.67;546.00;;;9.20;99.90;;;;;;5028620;28;20485;-76
2024/01/02 09:22:45;;;;;;;614.67;563.17;;;9.20;99.90;;;;;;5044690;28;20510;-76
2024/01/02 09:25:14;;;;;;;880.70;784.57;;;9.20;99.90;;;;;;5038637;28;20048;-77
2024/01/02 09:27:41;;;;;;;726.57;658.40;;;9.20;99.90;;;;;;5042397;28;20127;-76
2024/01/02 09:30:10;;;;;;;623.73;571.80;;;9.20;99.90;;;;;;5040795;28;20337;-77
2024/01/02 09:32:36;;;;;;;626.73;575.53;;;9.20;99.90;;;;;;5025817;28;20299;-76
2024/01/02 09:35:02;;;;;;;558.33;513.03;;;9.30;99.90;;;;;;5024520;28;20287;-76
2024/01/02 09:37:27;;;;;;;571.07;523.63;;;9.30;99.90;;;;;;5029677;28;20434;-76
2024/01/02 09:39:53;;;;;;;557.90;511.93;;;9.30;99.90;;;;;;5044325;28;20072;-76
2024/01/02 09:42:43;;;;;;;658.57;603.70;;;9.30;99.90;;;;;;5027646;28;20051;-76
2024/01/02 09:45:32;;;;;;;662.97;606.07;;;9.30;99.90;;;;;;5023981;28;20041;-76
2024/01/02 09:48:01;;;;;;;590.37;542.27;;;9.30;99.90;;;;;;5043781;28;20287;-76
2024/01/02 09:51:05;;;;;;;585.27;535.37;;;9.30;99.90;;;;;;5027000;28;20283;-76
2024/01/02 09:53:34;;;;;;;587.13;540.73;;;9.30;99.90;;;;;;5026146;28;20740;-76
2024/01/02 09:56:19;;;;;;;666.93;607.70;;;9.30;99.90;;;;;;5041613;28;20288;-76
2024/01/02 09:58:53;;;;;;;578.45;530.78;;;9.30;99.90;;;;;;5024023;28;20283;-76
2024/01/02 10:01:52;;;;;;;775.63;702.78;;;9.30;99.90;;;;;;5034010;28;20040;-76
2024/01/02 10:04:30;;;;;;;713.83;646.27;;;9.40;99.90;;;;;;5024097;28;20124;-76
2024/01/02 10:07:14;;;;;;;565.63;519.17;;;9.40;99.90;;;;;;5039086;28;20834;-75
2024/01/02 10:09:39;;;;;;;639.13;584.53;;;9.40;99.90;;;;;;5038664;28;20296;-76
2024/01/02 10:12:17;;;;;;;553.67;507.33;;;9.40;99.90;;;;;;5019922;28;20632;-75
2024/01/02 10:15:28;;;;;;;587.27;538.93;;;9.40;99.90;;;;;;5040354;28;20060;-75
2024/01/02 10:18:24;;;;;;;555.77;508.67;;;9.30;99.90;;;;;;5023073;28;20894;-75
2024/01/02 10:20:53;;;;;;;474.70;436.87;;;9.30;99.90;;;;;;5034938;28;20844;-75
2024/01/02 10:23:52;;;;;;;769.27;695.23;;;9.30;99.90;;;;;;5040649;28;20772;-75
2024/01/02 10:26:19;;;;;;;523.93;482.90;;;9.20;99.90;;;;;;5023920;28;20299;-75
2024/01/02 10:28:49;;;;;;;661.67;604.37;;;9.20;99.90;;;;;;5017832;28;20791;-75
2024/01/02 10:31:30;;;;;;;597.53;548.27;;;9.20;99.90;;;;;;5036805;28;20287;-75
2024/01/02 10:34:03;;;;;;;613.23;560.20;;;9.20;99.90;;;;;;5038007;28;20366;-75
2024/01/02 10:36:31;;;;;;;551.00;506.47;;;9.20;99.90;;;;;;5037741;28;20345;-75
2024/01/02 10:39:37;;;;;;;527.10;484.57;;;9.20;99.90;;;;;;5025438;28;20333;-76
2024/01/02 10:42:45;;;;;;;552.80;507.98;;;9.20;99.90;;;;;;5040278;28;20453;-75
2024/01/02 10:45:25;;;;;;;526.20;485.57;;;9.30;99.90;;;;;;5022999;28;20037;-75
2024/01/02 10:48:22;;;;;;;552.47;507.50;;;9.30;99.90;;;;;;5045160;28;20283;-75
2024/01/02 10:50:57;;;;;;;575.60;529.23;;;9.40;99.90;;;;;;5046318;28;20299;-76
2024/01/02 10:53:41;;;;;;;473.25;436.73;;;9.40;99.90;;;;;;5021198;28;20294;-75
2024/01/02 10:56:31;;;;;;;448.57;414.43;;;9.40;99.90;;;;;;5043386;28;20699;-76
2024/01/02 10:59:14;;;;;;;597.97;549.57;;;9.40;99.90;;;;;;5038491;28;20276;-75
2024/01/02 11:01:46;;;;;;;653.57;598.53;;;9.40;99.90;;;;;;5046268;28;20271;-75
2024/01/02 11:04:32;;;;;;;542.10;498.07;;;9.40;99.90;;;;;;5044940;28;20299;-75
2024/01/02 11:07:10;;;;;;;664.93;608.70;;;9.40;99.90;;;;;;5034302;28;20676;-75
2024/01/02 11:10:02;;;;;;;572.40;526.20;;;9.40;99.90;;;;;;5043056;28;20291;-75
2024/01/02 11:12:36;;;;;;;493.83;455.77;;;9.40;99.90;;;;;;5040413;28;20395;-76
2024/01/02 11:15:03;;;;;;;545.72;502.83;;;9.40;99.90;;;;;;5042133;28;20307;-75
2024/01/02 11:17:31;;;;;;;672.27;616.50;;;9.40;99.90;;;;;;5035745;28;20041;-75
2024/01/02 11:20:03;;;;;;;655.37;599.80;;;9.40;99.90;;;;;;5028517;28;20319;-74
2024/01/02 11:22:36;;;;;;;652.13;596.80;;;9.40;99.90;;;;;;5044994;28;20279;-75
2024/01/02 11:25:04;;;;;;;576.83;529.80;;;9.50;99.90;;;;;;5023800;28;20292;-75
2024/01/02 11:27:30;;;;;;;590.67;542.83;;;9.50;99.90;;;;;;5045126;28;20287;-74
2024/01/02 11:30:02;;;;;;;611.47;561.07;;;9.50;99.90;;;;;;5017759;28;20367;-75
2024/01/02 11:32:54;;;;;;;619.93;569.93;;;9.50;99.90;;;;;;5044863;28;20371;-75
2024/01/02 11:35:20;;;;;;;530.17;486.73;;;9.40;99.90;;;;;;5020444;28;20687;-75
2024/01/02 11:38:07;;;;;;;606.17;554.23;;;9.50;99.90;;;;;;5045040;28;20294;-74
2024/01/02 11:40:56;;;;;;;592.57;543.87;;;9.50;99.90;;;;;;5041562;28;20276;-74
2024/01/02 11:43:46;;;;;;;595.00;545.60;;;9.50;99.90;;;;;;5048261;28;20792;-73
2024/01/02 11:46:14;;;;;;;515.07;475.33;;;9.50;99.90;;;;;;5039780;28;20364;-74
2024/01/02 11:48:58;;;;;;;575.57;527.33;;;9.50;99.90;;;;;;5050305;28;20805;-74
2024/01/02 11:51:27;;;;;;;578.73;531.03;;;9.50;99.90;;;;;;5032815;28;20283;-74
2024/01/02 11:54:11;;;;;;;579.13;533.87;;;9.50;99.90;;;;;;5029468;28;20276;-75
2024/01/02 11:56:37;;;;;;;607.97;557.77;;;9.50;99.90;;;;;;5028987;28;20291;-74
2024/01/02 11:59:25;;;;;;;619.97;568.07;;;9.50;99.90;;;;;;5024347;28;20279;-74
2024/01/02 12:02:08;;;;;;;665.30;606.67;;;9.50;99.90;;;;;;5032475;28;20279;-74
2024/01/02 12:05:06;;;;;;;614.47;564.33;;;9.50;99.90;;;;;;5046860;28;20294;-74
2024/01/02 12:07:37;;;;;;;641.50;588.60;;;9.40;99.90;;;;;;5043778;28;20295;-74
2024/01/02 12:10:05;;;;;;;518.37;475.70;;;9.40;99.90;;;;;;5046079;28;20871;-74
2024/01/02 12:13:06;;;;;;;708.77;647.03;;;9.30;99.90;;;;;;5044698;28;20287;-74
2024/01/02 12:15:50;;;;;;;664.87;605.40;;;9.30;99.90;;;;;;5042969;28;20303;-74
2024/01/02 12:18:21;;;;;;;619.90;567.92;;;9.20;99.90;;;;;;5043064;28;20287;-74
2024/01/02 12:21:01;;;;;;;610.83;561.57;;;9.20;99.90;;;;;;5043044;28;20037;-73
2024/01/02 12:23:29;;;;;;;641.57;587.60;;;9.20;99.90;;;;;;5039419;28;20292;-73
2024/01/02 12:26:06;;;;;;;692.47;632.90;;;9.20;99.90;;;;;;5046563;28;20663;-74
2024/01/02 12:28:35;;;;;;;532.13;489.07;;;9.20;99.90;;;;;;5028097;28;20344;-74
2024/01/02 12:31:16;;;;;;;580.20;533.07;;;9.20;99.90;;;;;;5043356;28;20291;-74